createdAt,value
2023-05-20T00:00:08.407Z,14.48
2023-05-20T00:01:08.385Z,14.49
2023-05-20T00:02:08.409Z,14.48
2023-05-20T00:03:08.465Z,14.49
2023-05-20T00:04:08.508Z,14.48
2023-05-20T00:05:08.500Z,14.49
2023-05-20T00:06:08.333Z,14.49
2023-05-20T00:07:08.364Z,14.48
2023-05-20T00:08:08.298Z,14.45
2023-05-20T00:09:08.454Z,14.49
2023-05-20T00:10:08.303Z,14.49
2023-05-20T00:11:08.286Z,14.52
2023-05-20T00:12:08.239Z,14.51
2023-05-20T00:13:08.232Z,14.49
2023-05-20T00:14:08.226Z,14.51
2023-05-20T00:15:08.212Z,14.49
2023-05-20T00:16:08.250Z,14.49
2023-05-20T00:17:08.199Z,14.49
2023-05-20T00:18:08.212Z,14.48
2023-05-20T00:19:08.202Z,14.45
2023-05-20T00:20:08.144Z,14.48
2023-05-20T00:21:08.159Z,14.45
2023-05-20T00:22:08.098Z,14.45
2023-05-20T00:23:08.100Z,14.48
2023-05-20T00:24:08.101Z,14.45
2023-05-20T00:25:08.099Z,14.48
2023-05-20T00:26:08.078Z,14.48
2023-05-20T00:27:08.052Z,14.45
2023-05-20T00:28:08.044Z,14.45
2023-05-20T00:29:08.015Z,14.45
2023-05-20T00:30:08.012Z,14.45
2023-05-20T00:31:07.998Z,14.45
2023-05-20T00:32:08.022Z,14.48
2023-05-20T00:33:08.014Z,14.45
2023-05-20T00:34:07.944Z,14.48
2023-05-20T00:35:07.966Z,14.48
2023-05-20T00:36:07.924Z,14.48
2023-05-20T00:37:07.914Z,14.45
2023-05-20T00:38:07.885Z,14.44
2023-05-20T00:39:07.897Z,14.41
2023-05-20T00:40:07.911Z,14.40
2023-05-20T00:41:07.854Z,14.40
2023-05-20T00:42:07.832Z,14.40
2023-05-20T00:43:07.834Z,14.41
2023-05-20T00:44:07.844Z,14.40
2023-05-20T00:45:07.830Z,14.41
2023-05-20T00:46:07.871Z,14.44
2023-05-20T00:47:07.799Z,14.43
2023-05-20T00:48:07.807Z,14.43
2023-05-20T00:49:07.762Z,14.43
2023-05-20T00:50:07.730Z,14.41
2023-05-20T00:51:07.754Z,14.40
2023-05-20T00:52:07.712Z,14.40
2023-05-20T00:53:07.699Z,14.38
2023-05-20T00:54:07.703Z,14.37
2023-05-20T00:55:07.677Z,14.36
2023-05-20T00:56:07.658Z,14.37
2023-05-20T00:57:07.653Z,14.36
2023-05-20T00:58:07.651Z,14.34
2023-05-20T00:59:07.636Z,14.31
2023-05-20T01:00:07.604Z,14.30
2023-05-20T01:01:07.692Z,14.28
2023-05-20T01:02:07.597Z,14.30
2023-05-20T01:03:07.631Z,14.26
2023-05-20T01:04:07.533Z,14.23
2023-05-20T01:05:07.532Z,14.20
2023-05-20T01:06:07.520Z,14.22
2023-05-20T01:07:07.519Z,14.22
2023-05-20T01:08:07.515Z,14.22
2023-05-20T01:09:07.502Z,14.20
2023-05-20T01:10:07.466Z,14.20
2023-05-20T01:11:07.466Z,14.23
2023-05-20T01:12:07.455Z,14.23
2023-05-20T01:13:07.449Z,14.25
2023-05-20T01:14:07.414Z,14.26
2023-05-20T01:15:07.418Z,14.30
2023-05-20T01:16:07.407Z,14.28
2023-05-20T01:17:07.392Z,14.28
2023-05-20T01:18:07.375Z,14.25
2023-05-20T01:19:07.376Z,14.23
2023-05-20T01:20:07.340Z,14.22
2023-05-20T01:21:07.321Z,14.22
2023-05-20T01:22:07.312Z,14.23
2023-05-20T01:23:07.298Z,14.23
2023-05-20T01:24:07.275Z,14.23
2023-05-20T01:25:07.261Z,14.26
2023-05-20T01:26:07.282Z,14.25
2023-05-20T01:27:07.278Z,14.22
2023-05-20T01:28:07.207Z,14.22
2023-05-20T01:29:07.203Z,14.23
2023-05-20T01:30:07.198Z,14.25
2023-05-20T01:31:07.239Z,14.26
2023-05-20T01:32:07.164Z,14.26
2023-05-20T01:33:07.211Z,14.28
2023-05-20T01:34:07.134Z,14.26
2023-05-20T01:35:07.133Z,14.26
2023-05-20T01:36:07.144Z,14.28
2023-05-20T01:37:07.125Z,14.30
2023-05-20T01:38:07.100Z,14.28
2023-05-20T01:39:07.092Z,14.31
2023-05-20T01:40:07.070Z,14.30
2023-05-20T01:41:07.093Z,14.30
2023-05-20T01:42:07.045Z,14.28
2023-05-20T01:43:07.025Z,14.30
2023-05-20T01:44:07.024Z,14.30
2023-05-20T01:45:07.035Z,14.28
2023-05-20T01:46:07.005Z,14.26
2023-05-20T01:47:07.010Z,14.26
2023-05-20T01:48:06.988Z,14.26
2023-05-20T01:49:06.946Z,14.26
2023-05-20T01:50:06.957Z,14.25
2023-05-20T01:51:06.916Z,14.22
2023-05-20T01:52:06.884Z,14.23
2023-05-20T01:53:06.888Z,14.23
2023-05-20T01:54:06.874Z,14.23
2023-05-20T01:55:06.876Z,14.23
2023-05-20T01:56:06.841Z,14.23
2023-05-20T01:57:06.838Z,14.23
2023-05-20T01:58:06.820Z,14.23
2023-05-20T01:59:06.847Z,14.25
2023-05-20T02:00:06.817Z,14.23
2023-05-20T02:01:06.860Z,14.22
2023-05-20T02:02:06.824Z,14.19
2023-05-20T02:03:06.798Z,14.19
2023-05-20T02:04:06.779Z,14.19
2023-05-20T02:05:06.736Z,14.18
2023-05-20T02:06:06.755Z,14.18
2023-05-20T02:07:06.695Z,14.19
2023-05-20T02:08:06.684Z,14.19
2023-05-20T02:09:06.711Z,14.18
2023-05-20T02:10:06.653Z,14.18
2023-05-20T02:11:06.646Z,14.16
2023-05-20T02:12:06.636Z,14.16
2023-05-20T02:13:06.641Z,14.18
2023-05-20T02:14:06.632Z,14.15
2023-05-20T02:15:06.602Z,14.13
2023-05-20T02:16:06.603Z,14.12
2023-05-20T02:17:06.573Z,14.11
2023-05-20T02:18:06.601Z,14.12
2023-05-20T02:19:06.613Z,14.12
2023-05-20T02:20:06.519Z,14.12
2023-05-20T02:21:06.530Z,14.13
2023-05-20T02:22:06.514Z,14.13
2023-05-20T02:23:06.507Z,14.15
2023-05-20T02:24:06.476Z,14.16
2023-05-20T02:25:06.470Z,14.15
2023-05-20T02:26:06.452Z,14.15
2023-05-20T02:27:06.470Z,14.15
2023-05-20T02:28:06.434Z,14.13
2023-05-20T02:29:06.414Z,14.13
2023-05-20T02:30:06.397Z,14.13
2023-05-20T02:31:06.393Z,14.13
2023-05-20T02:32:06.387Z,14.11
2023-05-20T02:33:06.389Z,14.08
2023-05-20T02:34:06.396Z,14.12
2023-05-20T02:35:06.331Z,14.07
2023-05-20T02:36:06.317Z,14.08
2023-05-20T02:37:06.322Z,14.07
2023-05-20T02:38:06.293Z,14.07
2023-05-20T02:39:06.286Z,14.07
2023-05-20T02:40:06.267Z,14.05
2023-05-20T02:41:06.272Z,14.04
2023-05-20T02:42:06.249Z,14.05
2023-05-20T02:43:06.231Z,14.04
2023-05-20T02:44:06.214Z,14.03
2023-05-20T02:45:06.205Z,14.04
2023-05-20T02:46:06.215Z,14.04
2023-05-20T02:47:06.214Z,14.05
2023-05-20T02:48:06.236Z,14.04
2023-05-20T02:49:06.160Z,14.03
2023-05-20T02:50:06.143Z,14.04
2023-05-20T02:51:06.143Z,14.04
2023-05-20T02:52:06.127Z,14.05
2023-05-20T02:53:06.099Z,14.05
2023-05-20T02:54:06.078Z,14.04
2023-05-20T02:55:06.077Z,14.04
2023-05-20T02:56:06.072Z,14.04
2023-05-20T02:57:06.067Z,14.04
2023-05-20T02:58:06.038Z,14.03
2023-05-20T02:59:06.005Z,14.03
2023-05-20T03:00:06.004Z,13.98
2023-05-20T03:01:06.050Z,14.00
2023-05-20T03:02:05.975Z,14.00
2023-05-20T03:03:06.057Z,13.97
2023-05-20T03:04:06.013Z,13.94
2023-05-20T03:05:05.943Z,13.93
2023-05-20T03:06:05.934Z,13.93
2023-05-20T03:07:05.918Z,13.94
2023-05-20T03:08:05.907Z,13.95
2023-05-20T03:09:05.890Z,13.94
2023-05-20T03:10:05.868Z,13.94
2023-05-20T03:11:06.792Z,13.93
2023-05-20T03:12:05.837Z,13.86
2023-05-20T03:13:05.835Z,13.86
2023-05-20T03:14:05.814Z,13.85
2023-05-20T03:15:05.823Z,13.87
2023-05-20T03:16:05.942Z,13.87
2023-05-20T03:17:05.807Z,13.87
2023-05-20T03:18:05.787Z,13.89
2023-05-20T03:19:05.780Z,13.91
2023-05-20T03:20:05.757Z,13.93
2023-05-20T03:21:05.722Z,13.91
2023-05-20T03:22:05.708Z,13.91
2023-05-20T03:23:05.706Z,13.87
2023-05-20T03:24:05.679Z,13.89
2023-05-20T03:25:05.690Z,13.87
2023-05-20T03:26:05.656Z,13.86
2023-05-20T03:27:05.683Z,13.85
2023-05-20T03:28:05.646Z,13.80
2023-05-20T03:29:05.624Z,13.76
2023-05-20T03:30:05.628Z,13.78
2023-05-20T03:31:05.603Z,13.76
2023-05-20T03:32:05.569Z,13.78
2023-05-20T03:33:05.563Z,13.76
2023-05-20T03:34:05.572Z,13.79
2023-05-20T03:35:05.562Z,13.78
2023-05-20T03:36:05.570Z,13.78
2023-05-20T03:37:05.513Z,13.78
2023-05-20T03:38:05.494Z,13.76
2023-05-20T03:39:05.547Z,13.75
2023-05-20T03:40:05.486Z,13.73
2023-05-20T03:41:05.488Z,13.71
2023-05-20T03:42:05.445Z,13.71
2023-05-20T03:43:05.430Z,13.68
2023-05-20T03:44:05.424Z,13.68
2023-05-20T03:45:05.391Z,13.67
2023-05-20T03:46:05.387Z,13.64
2023-05-20T03:47:05.426Z,13.64
2023-05-20T03:48:05.448Z,13.61
2023-05-20T03:49:05.374Z,13.62
2023-05-20T03:50:05.326Z,13.61
2023-05-20T03:51:05.321Z,13.64
2023-05-20T03:52:05.315Z,13.65
2023-05-20T03:53:05.283Z,13.62
2023-05-20T03:54:05.294Z,13.61
2023-05-20T03:55:05.278Z,13.61
2023-05-20T03:56:05.248Z,13.61
2023-05-20T03:57:05.257Z,13.62
2023-05-20T03:58:05.239Z,13.61
2023-05-20T03:59:05.232Z,13.60
2023-05-20T04:00:05.213Z,13.60
2023-05-20T04:01:05.188Z,13.58
2023-05-20T04:02:05.249Z,13.58
2023-05-20T04:03:05.275Z,13.62
2023-05-20T04:04:05.260Z,13.62
2023-05-20T04:05:05.139Z,13.60
2023-05-20T04:06:05.113Z,13.60
2023-05-20T04:07:05.161Z,13.55
2023-05-20T04:08:05.175Z,13.54
2023-05-20T04:09:05.100Z,13.52
2023-05-20T04:10:05.073Z,13.54
2023-05-20T04:11:05.044Z,13.54
2023-05-20T04:12:05.038Z,13.54
2023-05-20T04:13:05.050Z,13.55
2023-05-20T04:14:05.010Z,13.58
2023-05-20T04:15:04.997Z,13.58
2023-05-20T04:16:04.987Z,13.58
2023-05-20T04:17:05.062Z,13.58
2023-05-20T04:18:05.035Z,13.60
2023-05-20T04:19:04.958Z,13.62
2023-05-20T04:20:04.938Z,13.62
2023-05-20T04:21:04.923Z,13.65
2023-05-20T04:22:04.906Z,13.65
2023-05-20T04:23:04.907Z,13.64
2023-05-20T04:24:04.898Z,13.64
2023-05-20T04:25:04.919Z,13.64
2023-05-20T04:26:04.850Z,13.62
2023-05-20T04:27:04.847Z,13.64
2023-05-20T04:28:04.839Z,13.61
2023-05-20T04:29:04.808Z,13.62
2023-05-20T04:30:04.811Z,13.60
2023-05-20T04:31:04.799Z,13.58
2023-05-20T04:32:04.859Z,13.61
2023-05-20T04:33:04.807Z,13.61
2023-05-20T04:34:04.769Z,13.62
2023-05-20T04:35:04.716Z,13.64
2023-05-20T04:36:04.715Z,13.65
2023-05-20T04:37:04.719Z,13.68
2023-05-20T04:38:11.906Z,13.68
2023-05-20T04:39:04.688Z,13.71
2023-05-20T04:40:04.668Z,13.73
2023-05-20T04:41:04.648Z,13.78
2023-05-20T04:42:04.677Z,13.78
2023-05-20T04:43:04.625Z,13.79
2023-05-20T04:44:04.621Z,13.80
2023-05-20T04:45:04.594Z,13.80
2023-05-20T04:46:04.644Z,13.80
2023-05-20T04:47:04.588Z,13.82
2023-05-20T04:48:04.585Z,13.83
2023-05-20T04:49:04.584Z,13.83
2023-05-20T04:50:04.542Z,13.83
2023-05-20T04:51:04.510Z,13.85
2023-05-20T04:52:04.525Z,13.87
2023-05-20T04:53:04.481Z,13.89
2023-05-20T04:54:04.481Z,13.89
2023-05-20T04:55:04.506Z,13.91
2023-05-20T04:56:04.538Z,13.94
2023-05-20T04:57:04.477Z,13.94
2023-05-20T04:58:04.436Z,13.95
2023-05-20T04:59:04.399Z,13.97
2023-05-20T05:00:04.405Z,14.00
2023-05-20T05:01:04.461Z,14.03
2023-05-20T05:02:04.376Z,14.04
2023-05-20T05:03:04.501Z,14.04
2023-05-20T05:04:04.351Z,14.04
2023-05-20T05:05:04.441Z,14.05
2023-05-20T05:06:04.356Z,14.08
2023-05-20T05:07:04.514Z,14.08
2023-05-20T05:08:04.292Z,14.11
2023-05-20T05:09:04.278Z,14.11
2023-05-20T05:10:04.293Z,14.12
2023-05-20T05:11:04.271Z,14.11
2023-05-20T05:12:04.269Z,14.11
2023-05-20T05:13:04.222Z,14.08
2023-05-20T05:14:04.214Z,14.07
2023-05-20T05:15:04.224Z,14.05
2023-05-20T05:16:04.261Z,14.04
2023-05-20T05:17:04.193Z,14.03
2023-05-20T05:18:04.276Z,14.01
2023-05-20T05:19:04.199Z,14.00
2023-05-20T05:20:04.151Z,14.01
2023-05-20T05:21:04.250Z,14.01
2023-05-20T05:22:04.115Z,14.01
2023-05-20T05:23:04.084Z,14.03
2023-05-20T05:24:04.092Z,14.03
2023-05-20T05:25:04.082Z,14.04
2023-05-20T05:26:04.050Z,14.05
2023-05-20T05:27:04.053Z,14.04
2023-05-20T05:28:04.035Z,14.03
2023-05-20T05:29:04.037Z,14.05
2023-05-20T05:30:04.007Z,14.07
2023-05-20T05:31:04.023Z,14.07
2023-05-20T05:32:04.031Z,14.07
2023-05-20T05:33:04.186Z,14.04
2023-05-20T05:34:03.968Z,14.05
2023-05-20T05:35:05.573Z,14.05
2023-05-20T05:36:03.936Z,14.05
2023-05-20T05:37:03.914Z,14.05
2023-05-20T05:38:03.890Z,14.07
2023-05-20T05:39:03.902Z,14.08
2023-05-20T05:40:03.876Z,14.11
2023-05-20T05:41:03.856Z,14.13
2023-05-20T05:42:03.838Z,14.15
2023-05-20T05:43:03.855Z,14.16
2023-05-20T05:44:03.834Z,14.19
2023-05-20T05:45:03.790Z,14.20
2023-05-20T05:46:03.855Z,14.22
2023-05-20T05:47:03.824Z,14.23
2023-05-20T05:48:03.799Z,14.25
2023-05-20T05:49:03.743Z,14.26
2023-05-20T05:50:03.780Z,14.30
2023-05-20T05:51:03.730Z,14.30
2023-05-20T05:52:03.708Z,14.31
2023-05-20T05:53:03.721Z,14.33
2023-05-20T05:54:03.689Z,14.34
2023-05-20T05:55:03.649Z,14.34
2023-05-20T05:56:03.652Z,14.34
2023-05-20T05:57:05.772Z,14.36
2023-05-20T05:58:03.632Z,14.37
2023-05-20T05:59:03.610Z,14.37
2023-05-20T06:00:03.592Z,14.37
2023-05-20T06:01:03.694Z,14.36
2023-05-20T06:02:03.621Z,14.33
2023-05-20T06:03:03.657Z,14.33
2023-05-20T06:04:03.614Z,14.33
2023-05-20T06:05:03.527Z,14.34
2023-05-20T06:06:03.532Z,14.36
2023-05-20T06:07:03.511Z,14.37
2023-05-20T06:08:03.529Z,14.40
2023-05-20T06:09:03.482Z,14.40
2023-05-20T06:10:03.477Z,14.41
2023-05-20T06:11:03.446Z,14.41
2023-05-20T06:12:03.458Z,14.44
2023-05-20T06:13:03.462Z,14.43
2023-05-20T06:14:03.419Z,14.41
2023-05-20T06:15:03.392Z,14.40
2023-05-20T06:16:03.379Z,14.43
2023-05-20T06:17:03.496Z,14.43
2023-05-20T06:18:03.416Z,14.43
2023-05-20T06:19:03.726Z,14.41
2023-05-20T06:20:03.322Z,14.45
2023-05-20T06:21:03.316Z,14.44
2023-05-20T06:22:03.373Z,14.48
2023-05-20T06:23:03.294Z,14.49
2023-05-20T06:24:03.273Z,14.45
2023-05-20T06:25:03.274Z,14.45
2023-05-20T06:26:03.250Z,14.49
2023-05-20T06:27:03.281Z,14.51
2023-05-20T06:28:03.244Z,14.53
2023-05-20T06:29:03.204Z,14.55
2023-05-20T06:30:03.207Z,14.58
2023-05-20T06:31:03.257Z,14.62
2023-05-20T06:32:03.207Z,14.66
2023-05-20T06:33:03.198Z,14.68
2023-05-20T06:34:03.149Z,14.68
2023-05-20T06:35:03.129Z,14.71
2023-05-20T06:36:03.135Z,14.74
2023-05-20T06:37:03.100Z,14.74
2023-05-20T06:38:03.130Z,14.77
2023-05-20T06:39:03.077Z,14.71
2023-05-20T06:40:03.086Z,14.73
2023-05-20T06:41:03.094Z,14.71
2023-05-20T06:42:03.039Z,14.73
2023-05-20T06:43:03.021Z,14.68
2023-05-20T06:44:03.005Z,14.68
2023-05-20T06:45:03.006Z,14.68
2023-05-20T06:46:03.066Z,14.70
2023-05-20T06:47:02.986Z,14.70
2023-05-20T06:48:02.996Z,14.71
2023-05-20T06:49:02.944Z,14.74
2023-05-20T06:50:02.947Z,14.78
2023-05-20T06:51:02.926Z,14.79
2023-05-20T06:52:02.918Z,14.85
2023-05-20T06:53:02.889Z,14.87
2023-05-20T06:54:02.875Z,14.87
2023-05-20T06:55:02.950Z,14.89
2023-05-20T06:56:02.870Z,14.92
2023-05-20T06:57:02.845Z,14.94
2023-05-20T06:58:02.829Z,14.97
2023-05-20T06:59:02.827Z,14.97
2023-05-20T07:00:02.831Z,14.99
2023-05-20T07:01:02.786Z,15.00
2023-05-20T07:02:02.809Z,15.00
2023-05-20T07:03:02.873Z,14.99
2023-05-20T07:04:02.772Z,15.00
2023-05-20T07:05:02.744Z,15.00
2023-05-20T07:06:02.719Z,14.99
2023-05-20T07:07:02.736Z,14.99
2023-05-20T07:08:02.696Z,14.99
2023-05-20T07:09:02.694Z,15.02
2023-05-20T07:10:02.669Z,15.02
2023-05-20T07:11:02.648Z,15.05
2023-05-20T07:12:02.629Z,15.10
2023-05-20T07:13:02.623Z,15.14
2023-05-20T07:14:02.673Z,15.17
2023-05-20T07:15:02.611Z,15.22
2023-05-20T07:16:02.655Z,15.26
2023-05-20T07:17:02.577Z,15.33
2023-05-20T07:18:02.617Z,15.37
2023-05-20T07:19:02.610Z,15.45
2023-05-20T07:20:02.528Z,15.50
2023-05-20T07:21:02.537Z,15.54
2023-05-20T07:22:02.509Z,15.62
2023-05-20T07:23:02.561Z,15.69
2023-05-20T07:24:02.484Z,15.75
2023-05-20T07:25:02.468Z,15.84
2023-05-20T07:26:02.440Z,15.83
2023-05-20T07:27:02.433Z,15.84
2023-05-20T07:28:02.460Z,15.91
2023-05-20T07:29:02.399Z,15.98
2023-05-20T07:30:02.405Z,15.98
2023-05-20T07:31:02.402Z,15.98
2023-05-20T07:32:02.505Z,15.99
2023-05-20T07:33:03.549Z,16.00
2023-05-20T07:34:02.351Z,15.98
2023-05-20T07:35:02.330Z,15.98
2023-05-20T07:36:02.498Z,15.98
2023-05-20T07:37:02.338Z,16.00
2023-05-20T07:38:02.299Z,15.98
2023-05-20T07:39:04.435Z,15.96
2023-05-20T07:40:02.278Z,15.96
2023-05-20T07:41:02.265Z,15.98
2023-05-20T07:42:02.260Z,16.00
2023-05-20T07:43:02.212Z,16.02
2023-05-20T07:45:36.190Z,15.98
2023-05-20T07:46:12.899Z,15.96
2023-05-20T07:47:12.811Z,16.00
2023-05-20T07:48:12.973Z,16.02
2023-05-20T07:49:12.789Z,16.06
2023-05-20T07:50:12.791Z,16.06
2023-05-20T07:51:12.795Z,16.08
2023-05-20T07:52:12.774Z,16.09
2023-05-20T07:53:12.744Z,16.13
2023-05-20T07:54:12.754Z,16.16
2023-05-20T07:55:12.732Z,16.17
2023-05-20T07:56:12.716Z,16.22
2023-05-20T07:57:12.726Z,16.28
2023-05-20T07:58:12.704Z,16.32
2023-05-20T07:59:12.675Z,16.37
2023-05-20T08:00:12.704Z,16.39
2023-05-20T08:01:12.667Z,16.43
2023-05-20T08:02:12.644Z,16.47
2023-05-20T08:03:12.735Z,16.50
2023-05-20T08:04:12.767Z,16.54
2023-05-20T08:05:12.622Z,16.57
2023-05-20T08:06:12.587Z,16.58
2023-05-20T08:07:12.584Z,16.58
2023-05-20T08:08:12.553Z,16.59
2023-05-20T08:09:12.556Z,16.61
2023-05-20T08:10:12.579Z,16.62
2023-05-20T08:11:12.520Z,16.65
2023-05-20T08:12:12.505Z,16.68
2023-05-20T08:13:12.506Z,16.69
2023-05-20T08:14:12.485Z,16.76
2023-05-20T08:15:12.492Z,16.77
2023-05-20T08:16:12.497Z,16.79
2023-05-20T08:17:12.568Z,16.84
2023-05-20T08:18:12.480Z,16.91
2023-05-20T08:19:12.471Z,16.91
2023-05-20T08:20:12.414Z,16.89
2023-05-20T08:21:12.389Z,16.89
2023-05-20T08:22:12.369Z,16.87
2023-05-20T08:23:12.356Z,16.91
2023-05-20T08:24:12.380Z,16.91
2023-05-20T08:25:12.351Z,16.92
2023-05-20T08:26:12.336Z,16.95
2023-05-20T08:27:12.313Z,16.95
2023-05-20T08:28:12.277Z,16.98
2023-05-20T08:29:12.313Z,16.98
2023-05-20T08:30:12.274Z,16.99
2023-05-20T08:31:12.336Z,16.99
2023-05-20T08:32:12.237Z,17.01
2023-05-20T08:33:12.306Z,17.01
2023-05-20T08:34:12.223Z,17.07
2023-05-20T08:35:12.194Z,17.10
2023-05-20T08:36:12.186Z,17.13
2023-05-20T08:37:12.178Z,17.16
2023-05-20T08:38:12.198Z,17.16
2023-05-20T08:39:12.168Z,17.10
2023-05-20T08:40:12.133Z,17.10
2023-05-20T08:41:12.121Z,17.01
2023-05-20T08:42:12.117Z,16.97
2023-05-20T08:43:12.117Z,16.94
2023-05-20T08:44:12.115Z,16.89
2023-05-20T08:45:12.078Z,16.83
2023-05-20T08:46:12.099Z,16.77
2023-05-20T08:47:12.080Z,16.69
2023-05-20T08:48:12.083Z,16.64
2023-05-20T08:49:12.019Z,16.59
2023-05-20T08:50:12.009Z,16.62
2023-05-20T08:51:11.997Z,16.65
2023-05-20T08:52:11.984Z,16.65
2023-05-20T08:53:11.978Z,16.72
2023-05-20T08:54:11.984Z,16.77
2023-05-20T08:55:11.936Z,16.84
2023-05-20T08:56:11.946Z,16.86
2023-05-20T08:57:11.952Z,16.94
2023-05-20T08:58:11.970Z,16.99
2023-05-20T08:59:11.889Z,17.02
2023-05-20T09:00:11.889Z,17.01
2023-05-20T09:01:11.856Z,17.02
2023-05-20T09:02:11.907Z,17.05
2023-05-20T09:03:11.904Z,17.04
2023-05-20T09:04:11.854Z,17.01
2023-05-20T09:05:11.932Z,16.95
2023-05-20T09:06:11.806Z,16.94
2023-05-20T09:07:11.796Z,16.92
2023-05-20T09:08:11.824Z,16.87
2023-05-20T09:09:11.753Z,16.84
2023-05-20T09:10:11.754Z,16.83
2023-05-20T09:11:11.734Z,16.79
2023-05-20T09:12:11.729Z,16.74
2023-05-20T09:13:11.723Z,16.66
2023-05-20T09:14:11.703Z,16.61
2023-05-20T09:15:11.680Z,16.59
2023-05-20T09:16:11.725Z,16.54
2023-05-20T09:17:11.682Z,16.49
2023-05-20T09:18:11.697Z,16.47
2023-05-20T09:19:11.709Z,16.44
2023-05-20T09:20:11.641Z,16.49
2023-05-20T09:21:11.616Z,16.50
2023-05-20T09:22:11.619Z,16.57
2023-05-20T09:23:11.555Z,16.58
2023-05-20T09:24:11.573Z,16.61
2023-05-20T09:25:11.558Z,16.61
2023-05-20T09:26:11.575Z,16.62
2023-05-20T09:27:11.522Z,16.62
2023-05-20T09:28:11.516Z,16.62
2023-05-20T09:29:11.489Z,16.61
2023-05-20T09:30:11.486Z,16.59
2023-05-20T09:31:11.478Z,16.58
2023-05-20T09:32:11.553Z,16.61
2023-05-20T09:33:11.505Z,16.59
2023-05-20T09:34:11.435Z,16.59
2023-05-20T09:35:11.428Z,16.59
2023-05-20T09:36:11.415Z,16.61
2023-05-20T09:37:11.386Z,16.61
2023-05-20T09:38:11.377Z,16.58
2023-05-20T09:39:11.361Z,16.58
2023-05-20T09:40:11.369Z,16.57
2023-05-20T09:41:11.329Z,16.59
2023-05-20T09:42:11.331Z,16.61
2023-05-20T09:43:11.565Z,16.62
2023-05-20T09:44:11.295Z,16.64
2023-05-20T09:45:11.296Z,16.65
2023-05-20T09:46:11.326Z,16.66
2023-05-20T09:47:11.253Z,16.73
2023-05-20T09:48:11.284Z,16.77
2023-05-20T09:49:11.247Z,16.76
2023-05-20T09:50:11.238Z,16.72
2023-05-20T09:51:11.201Z,16.68
2023-05-20T09:52:11.192Z,16.66
2023-05-20T09:53:11.212Z,16.65
2023-05-20T09:54:11.182Z,16.65
2023-05-20T09:55:11.205Z,16.64
2023-05-20T09:56:11.148Z,16.59
2023-05-20T09:57:11.117Z,16.57
2023-05-20T09:58:11.140Z,16.57
2023-05-20T09:59:11.126Z,16.57
2023-05-20T10:00:11.106Z,16.57
2023-05-20T10:01:11.136Z,16.61
2023-05-20T10:02:11.149Z,16.61
2023-05-20T10:03:11.124Z,16.64
2023-05-20T10:04:11.109Z,16.69
2023-05-20T10:05:11.023Z,16.74
2023-05-20T10:06:11.039Z,16.79
2023-05-20T10:07:10.989Z,16.82
2023-05-20T10:08:11.002Z,16.83
2023-05-20T10:09:10.976Z,16.87
2023-05-20T10:10:10.957Z,16.86
2023-05-20T10:11:10.948Z,16.82
2023-05-20T10:12:10.932Z,16.79
2023-05-20T10:13:10.938Z,16.77
2023-05-20T10:14:10.908Z,16.77
2023-05-20T10:15:10.886Z,16.79
2023-05-20T10:16:10.908Z,16.82
2023-05-20T10:17:10.874Z,16.83
2023-05-20T10:18:10.904Z,16.83
2023-05-20T10:19:10.867Z,16.84
2023-05-20T10:20:10.823Z,16.84
2023-05-20T10:21:10.894Z,16.87
2023-05-20T10:22:10.816Z,16.89
2023-05-20T10:23:10.814Z,16.91
2023-05-20T10:24:10.805Z,16.94
2023-05-20T10:25:10.750Z,16.95
2023-05-20T10:26:10.752Z,16.97
2023-05-20T10:27:10.742Z,16.99
2023-05-20T10:28:10.728Z,16.99
2023-05-20T10:29:11.793Z,16.97
2023-05-20T10:30:10.701Z,16.98
2023-05-20T10:31:10.690Z,16.99
2023-05-20T10:32:10.771Z,16.97
2023-05-20T10:33:10.904Z,16.99
2023-05-20T10:34:10.664Z,17.05
2023-05-20T10:35:10.624Z,17.09
2023-05-20T10:36:10.612Z,17.12
2023-05-20T10:37:10.602Z,17.14
2023-05-20T10:38:10.585Z,17.20
2023-05-20T10:39:10.568Z,17.23
2023-05-20T10:40:10.597Z,17.27
2023-05-20T10:41:10.563Z,17.35
2023-05-20T10:42:10.570Z,17.37
2023-05-20T10:43:10.601Z,17.41
2023-05-20T10:44:10.507Z,17.41
2023-05-20T10:45:17.700Z,17.39
2023-05-20T10:46:21.326Z,17.39
2023-05-20T10:48:10.545Z,17.60
2023-05-20T10:49:10.613Z,17.72
2023-05-20T10:50:10.450Z,17.72
2023-05-20T10:51:10.438Z,17.73
2023-05-20T10:52:10.393Z,17.71
2023-05-20T10:53:15.783Z,17.66
2023-05-20T10:54:11.365Z,17.66
2023-05-20T10:55:10.342Z,17.59
2023-05-20T10:56:10.355Z,17.59
2023-05-20T10:57:10.334Z,17.60
2023-05-20T10:58:10.315Z,17.57
2023-05-20T10:59:10.291Z,17.56
2023-05-20T11:00:10.306Z,17.59
2023-05-20T11:01:10.345Z,17.72
2023-05-20T11:02:10.282Z,17.86
2023-05-20T11:03:10.355Z,17.93
2023-05-20T11:04:10.360Z,17.88
2023-05-20T11:05:10.247Z,17.87
2023-05-20T11:06:10.242Z,17.86
2023-05-20T11:07:10.201Z,17.79
2023-05-20T11:08:20.607Z,17.76
2023-05-20T11:09:11.172Z,17.76
2023-05-20T11:10:10.193Z,17.76
2023-05-20T11:11:10.153Z,17.73
2023-05-20T11:12:10.153Z,17.71
2023-05-20T11:13:10.223Z,17.69
2023-05-20T11:14:10.128Z,17.66
2023-05-20T11:15:10.112Z,17.66
2023-05-20T11:16:10.179Z,17.65
2023-05-20T11:17:10.097Z,17.63
2023-05-20T11:18:10.104Z,17.65
2023-05-20T11:19:10.084Z,17.60
2023-05-20T11:20:10.037Z,17.60
2023-05-20T11:21:10.060Z,17.78
2023-05-20T11:22:10.007Z,17.76
2023-05-20T11:23:09.993Z,17.79
2023-05-20T11:24:10.008Z,17.78
2023-05-20T11:25:09.967Z,17.76
2023-05-20T11:26:09.972Z,17.76
2023-05-20T11:27:09.931Z,17.72
2023-05-20T11:28:09.927Z,17.69
2023-05-20T11:29:09.932Z,17.66
2023-05-20T11:30:09.899Z,17.66
2023-05-20T11:31:09.881Z,17.65
2023-05-20T11:32:09.900Z,17.63
2023-05-20T11:33:09.922Z,17.59
2023-05-20T11:34:09.848Z,17.59
2023-05-20T11:35:09.826Z,17.63
2023-05-20T11:36:20.241Z,17.60
2023-05-20T11:37:10.804Z,17.60
2023-05-20T11:38:09.828Z,17.59
2023-05-20T11:39:09.794Z,17.57
2023-05-20T11:40:09.805Z,17.53
2023-05-20T11:41:09.816Z,17.53
2023-05-20T11:42:09.736Z,17.54
2023-05-20T11:43:09.830Z,17.65
2023-05-20T11:44:09.834Z,17.71
2023-05-20T11:45:09.694Z,17.71
2023-05-20T11:46:09.735Z,17.69
2023-05-20T11:47:09.674Z,17.66
2023-05-20T11:48:09.711Z,17.63
2023-05-20T11:49:09.639Z,17.57
2023-05-20T11:50:09.636Z,17.53
2023-05-20T11:51:09.607Z,17.49
2023-05-20T11:52:09.614Z,17.49
2023-05-20T11:53:09.601Z,17.49
2023-05-20T11:54:09.582Z,17.47
2023-05-20T11:55:09.604Z,17.54
2023-05-20T11:56:09.552Z,17.66
2023-05-20T11:57:09.555Z,17.66
2023-05-20T11:58:09.560Z,17.72
2023-05-20T11:59:09.514Z,17.73
2023-05-20T12:00:09.496Z,17.75
2023-05-20T12:01:21.587Z,17.78
2023-05-20T12:02:10.513Z,17.82
2023-05-20T12:03:09.575Z,17.86
2023-05-20T12:04:09.590Z,17.88
2023-05-20T12:05:09.431Z,17.90
2023-05-20T12:06:09.418Z,17.95
2023-05-20T12:07:09.492Z,17.93
2023-05-20T12:08:09.390Z,17.93
2023-05-20T12:09:09.387Z,17.93
2023-05-20T12:10:09.390Z,17.91
2023-05-20T12:11:09.343Z,17.93
2023-05-20T12:12:09.380Z,17.93
2023-05-20T12:13:09.329Z,17.90
2023-05-20T12:14:09.324Z,17.90
2023-05-20T12:15:09.290Z,17.94
2023-05-20T12:16:09.338Z,18.02
2023-05-20T12:17:09.278Z,18.00
2023-05-20T12:18:09.284Z,17.97
2023-05-20T12:19:09.272Z,18.11
2023-05-20T12:20:09.238Z,18.11
2023-05-20T12:21:09.247Z,18.15
2023-05-20T12:22:09.215Z,18.16
2023-05-20T12:23:09.203Z,18.27
2023-05-20T12:24:09.176Z,18.41
2023-05-20T12:25:09.178Z,18.55
2023-05-20T12:26:09.166Z,18.73
2023-05-20T12:27:09.136Z,18.86
2023-05-20T12:28:09.109Z,18.97
2023-05-20T12:29:09.115Z,19.08
2023-05-20T12:30:09.105Z,19.08
2023-05-20T12:31:09.140Z,19.16
2023-05-20T12:32:09.093Z,19.15
2023-05-20T12:33:09.120Z,19.11
2023-05-20T12:34:09.062Z,19.05
2023-05-20T12:35:09.030Z,18.97
2023-05-20T12:36:09.040Z,18.91
2023-05-20T12:37:09.006Z,18.79
2023-05-20T12:38:08.987Z,18.66
2023-05-20T12:39:08.972Z,18.51
2023-05-20T12:40:08.974Z,18.42
2023-05-20T12:41:08.941Z,18.36
2023-05-20T12:42:08.922Z,18.28
2023-05-20T12:43:08.923Z,18.21
2023-05-20T12:44:08.903Z,18.16
2023-05-20T12:45:08.911Z,18.16
2023-05-20T12:46:08.881Z,18.13
2023-05-20T12:47:08.889Z,18.12
2023-05-20T12:48:08.886Z,18.13
2023-05-20T12:49:08.867Z,18.18
2023-05-20T12:50:08.846Z,18.28
2023-05-20T12:51:08.838Z,18.28
2023-05-20T12:52:19.066Z,18.28
2023-05-20T12:53:09.800Z,18.28
2023-05-20T12:54:08.784Z,18.26